Main page
METAR-TAF:

METAR-TAF

Airports :

Emmen, Switzerland

Militärflugplatz Emmen

latitude: 47-05-32N, longitude: 8-18-16E, elevation: 426 m

Current weather observation

The report was made 40 minutes ago, at 10:50 UTC
Wind 2 kt from variable directions
Temperature 12°C
Humidity 67%
Pressure 1021 hPa
Visibility 10 km or more
Overcast at a height of 4000 ft

METAR: LSME 261050Z VRB02KT 9999 OVC040 12/06 Q1021 RMK BLU

Time: 13:30 (11:30 UTC)


TAF: missing

Weather observations and forecasts of more than 4000 airports (METAR and TAF reports).

The available stations are represented by yellow and red dots on the map.

Hover mouse over dot to see the name of the station.

Then click to see weather observations and forecasts.

To change the map : click on the green buttons with a black cross to zoom in, on the green button with a dash to zoom out, or on the green arrows for adjacent maps.


METAR-TAF: